Startpagina
METAR-TAF:

METAR-TAF

Vliegvelden :

Kalispell Glacier Park, Montana, Verenigde Staten

breedte: 48-18-15N, lengte: 114-15-49W, hoogte: 906 m

Actueel weer

Dit bericht is 47 minuten geleden gemaakt, om 23:55 UTC
Wind 3 kt uit het zuiden
Temperatuur -11°C
Vochtigheid 61%
Druk 1022 hPa
Zicht: 16.1 km
Geheel bewolkt op 5000 ft

METAR: KGPI 182355Z 18003KT 10SM OVC050 M11/M17 A3019 RMK AO2 SLP286 T11061172 11094 21133 56011 $

Tijdstip: 17:42 (00:42 UTC)

Verwachting

Dit bericht is 1 uur en het 22 minuten geleden gemaakt, om 23:20 UTC
Verwachting geldig van 19 om 00 UTC tot 19 om 24 UTC
Wind 8 kt uit het zuiden
Zicht: 10 km
Geheel bewolkt op 5000 ft
Van 19 om 1000 UTC
Wind kt uit het noorden
Zicht: 10 km
Geheel bewolkt op 3500 ft
Van 19 om 1500 UTC
Wind 4 kt uit het noordnoordoosten
Zicht: 8.0 km
Geheel bewolkt op 2500 ft
lichte sneeuw

TAF: KGPI 182320Z 1900/1924 18008KT P6SM OVC050 FM191000 00000KT P6SM OVC035 FM191500 03004KT 5SM -SN OVC025

Waarnemingen en weersverwachtingen van meer dan 4000 vliegvelden (METAR en TAF).

De beschikbare stations zijn de gele en rode punten op de kaart.

Ga met uw muis naar het station om de naam te zien.

Klik dan om waarnemingen en weersverwachtingen te zien.

kaart wijzigen: klik op de groene knoppen met een zwart kruis om in te zoomen, op de groene knop met een streepje om uit te zoomen of op de groene pijlen voor aangrenzende kaarten.


METAR-TAF: